sensor_id;sensor_type;location;lat;lon;timestamp;temperature;humidity
25556;DHT22;13447;57.174;-2.112;2023-06-19T00:01:04;15.90;99.90
25556;DHT22;13447;57.174;-2.112;2023-06-19T00:03:31;15.90;99.90
25556;DHT22;13447;57.174;-2.112;2023-06-19T00:05:58;16.00;99.90
25556;DHT22;13447;57.174;-2.112;2023-06-19T00:08:24;15.80;99.90
25556;DHT22;13447;57.174;-2.112;2023-06-19T00:10:51;15.80;99.90
25556;DHT22;13447;57.174;-2.112;2023-06-19T00:13:18;15.80;99.90
25556;DHT22;13447;57.174;-2.112;2023-06-19T00:15:45;15.80;99.90
25556;DHT22;13447;57.174;-2.112;2023-06-19T00:18:12;15.70;99.90
25556;DHT22;13447;57.174;-2.112;2023-06-19T00:20:39;15.70;1.00
25556;DHT22;13447;57.174;-2.112;2023-06-19T00:23:06;15.70;1.00
25556;DHT22;13447;57.174;-2.112;2023-06-19T00:25:37;15.60;1.00
25556;DHT22;13447;57.174;-2.112;2023-06-19T00:28:04;15.60;1.00
25556;DHT22;13447;57.174;-2.112;2023-06-19T00:30:30;15.50;1.00
25556;DHT22;13447;57.174;-2.112;2023-06-19T00:32:59;15.50;1.00
25556;DHT22;13447;57.174;-2.112;2023-06-19T00:35:29;15.50;1.00
25556;DHT22;13447;57.174;-2.112;2023-06-19T00:40:30;15.50;1.00
25556;DHT22;13447;57.174;-2.112;2023-06-19T00:42:58;15.40;1.00
25556;DHT22;13447;57.174;-2.112;2023-06-19T00:45:25;15.40;1.00
25556;DHT22;13447;57.174;-2.112;2023-06-19T00:47:52;15.50;1.00
25556;DHT22;13447;57.174;-2.112;2023-06-19T00:50:22;15.40;1.00
25556;DHT22;13447;57.174;-2.112;2023-06-19T00:52:50;15.40;1.00
25556;DHT22;13447;57.174;-2.112;2023-06-19T00:55:17;15.40;1.00
25556;DHT22;13447;57.174;-2.112;2023-06-19T00:57:44;15.30;1.00
25556;DHT22;13447;57.174;-2.112;2023-06-19T01:00:11;15.30;1.00
25556;DHT22;13447;57.174;-2.112;2023-06-19T01:02:39;15.20;1.00
25556;DHT22;13447;57.174;-2.112;2023-06-19T01:05:06;15.10;1.00
25556;DHT22;13447;57.174;-2.112;2023-06-19T01:12:58;15.00;1.00
25556;DHT22;13447;57.174;-2.112;2023-06-19T01:15:27;15.00;1.00
25556;DHT22;13447;57.174;-2.112;2023-06-19T01:17:54;15.00;1.00
25556;DHT22;13447;57.174;-2.112;2023-06-19T01:20:21;15.10;1.00
25556;DHT22;13447;57.174;-2.112;2023-06-19T01:22:48;15.10;1.00
25556;DHT22;13447;57.174;-2.112;2023-06-19T01:25:15;15.10;1.00
25556;DHT22;13447;57.174;-2.112;2023-06-19T01:27:42;15.00;1.00
25556;DHT22;13447;57.174;-2.112;2023-06-19T01:30:09;15.00;1.00
25556;DHT22;13447;57.174;-2.112;2023-06-19T01:32:47;15.00;1.00
25556;DHT22;13447;57.174;-2.112;2023-06-19T01:35:19;15.00;1.00
25556;DHT22;13447;57.174;-2.112;2023-06-19T01:37:46;15.00;1.00
25556;DHT22;13447;57.174;-2.112;2023-06-19T01:40:14;15.00;1.00
25556;DHT22;13447;57.174;-2.112;2023-06-19T01:42:41;15.00;1.00
25556;DHT22;13447;57.174;-2.112;2023-06-19T01:45:09;15.00;1.00
25556;DHT22;13447;57.174;-2.112;2023-06-19T01:47:36;15.00;1.00
25556;DHT22;13447;57.174;-2.112;2023-06-19T01:50:03;15.00;1.00
25556;DHT22;13447;57.174;-2.112;2023-06-19T01:52:30;15.10;1.00
25556;DHT22;13447;57.174;-2.112;2023-06-19T01:54:57;15.10;1.00
25556;DHT22;13447;57.174;-2.112;2023-06-19T01:57:24;15.00;1.00
25556;DHT22;13447;57.174;-2.112;2023-06-19T01:59:51;15.10;1.00
25556;DHT22;13447;57.174;-2.112;2023-06-19T02:02:17;15.10;1.00
25556;DHT22;13447;57.174;-2.112;2023-06-19T02:04:44;15.10;1.00
25556;DHT22;13447;57.174;-2.112;2023-06-19T02:07:11;15.00;1.00
25556;DHT22;13447;57.174;-2.112;2023-06-19T02:09:38;15.00;1.00
25556;DHT22;13447;57.174;-2.112;2023-06-19T02:12:05;15.00;1.00
25556;DHT22;13447;57.174;-2.112;2023-06-19T02:14:32;15.10;1.00
25556;DHT22;13447;57.174;-2.112;2023-06-19T02:16:59;15.00;1.00
25556;DHT22;13447;57.174;-2.112;2023-06-19T02:19:26;15.00;1.00
25556;DHT22;13447;57.174;-2.112;2023-06-19T02:21:53;15.00;1.00
25556;DHT22;13447;57.174;-2.112;2023-06-19T02:24:19;15.00;1.00
25556;DHT22;13447;57.174;-2.112;2023-06-19T02:26:46;15.00;1.00
25556;DHT22;13447;57.174;-2.112;2023-06-19T02:29:13;15.00;1.00
25556;DHT22;13447;57.174;-2.112;2023-06-19T02:31:40;14.90;1.00
25556;DHT22;13447;57.174;-2.112;2023-06-19T02:34:07;14.90;1.00
25556;DHT22;13447;57.174;-2.112;2023-06-19T02:36:33;14.90;1.00
25556;DHT22;13447;57.174;-2.112;2023-06-19T02:39:04;14.80;1.00
25556;DHT22;13447;57.174;-2.112;2023-06-19T02:41:31;14.90;1.00
25556;DHT22;13447;57.174;-2.112;2023-06-19T02:43:58;14.90;1.00
25556;DHT22;13447;57.174;-2.112;2023-06-19T02:46:24;14.80;1.00
25556;DHT22;13447;57.174;-2.112;2023-06-19T02:48:51;14.80;1.00
25556;DHT22;13447;57.174;-2.112;2023-06-19T02:51:18;14.80;1.00
25556;DHT22;13447;57.174;-2.112;2023-06-19T02:53:45;14.70;1.00
25556;DHT22;13447;57.174;-2.112;2023-06-19T02:56:12;14.70;1.00
25556;DHT22;13447;57.174;-2.112;2023-06-19T02:58:39;14.70;1.00
25556;DHT22;13447;57.174;-2.112;2023-06-19T03:01:05;14.60;1.00
25556;DHT22;13447;57.174;-2.112;2023-06-19T03:03:35;14.60;1.00
25556;DHT22;13447;57.174;-2.112;2023-06-19T03:06:05;14.70;1.00
25556;DHT22;13447;57.174;-2.112;2023-06-19T03:08:36;14.60;1.00
25556;DHT22;13447;57.174;-2.112;2023-06-19T03:11:03;14.50;1.00
25556;DHT22;13447;57.174;-2.112;2023-06-19T03:16:10;14.50;1.00
25556;DHT22;13447;57.174;-2.112;2023-06-19T03:18:37;14.40;1.00
25556;DHT22;13447;57.174;-2.112;2023-06-19T03:21:04;14.40;1.00
25556;DHT22;13447;57.174;-2.112;2023-06-19T03:23:30;14.40;1.00
25556;DHT22;13447;57.174;-2.112;2023-06-19T03:25:57;14.40;1.00
25556;DHT22;13447;57.174;-2.112;2023-06-19T03:28:24;14.40;1.00
25556;DHT22;13447;57.174;-2.112;2023-06-19T03:30:51;14.40;1.00
25556;DHT22;13447;57.174;-2.112;2023-06-19T03:33:17;14.40;1.00
25556;DHT22;13447;57.174;-2.112;2023-06-19T03:35:44;14.40;1.00
25556;DHT22;13447;57.174;-2.112;2023-06-19T03:38:11;14.40;1.00
25556;DHT22;13447;57.174;-2.112;2023-06-19T03:40:38;14.40;1.00
25556;DHT22;13447;57.174;-2.112;2023-06-19T03:43:05;14.40;1.00
25556;DHT22;13447;57.174;-2.112;2023-06-19T03:45:31;14.30;1.00
25556;DHT22;13447;57.174;-2.112;2023-06-19T03:47:58;14.30;1.00
25556;DHT22;13447;57.174;-2.112;2023-06-19T03:50:26;14.30;1.00
25556;DHT22;13447;57.174;-2.112;2023-06-19T03:52:53;14.30;1.00
25556;DHT22;13447;57.174;-2.112;2023-06-19T03:55:20;14.40;1.00
25556;DHT22;13447;57.174;-2.112;2023-06-19T03:57:46;14.30;1.00
25556;DHT22;13447;57.174;-2.112;2023-06-19T04:00:14;14.30;1.00
25556;DHT22;13447;57.174;-2.112;2023-06-19T04:02:41;14.20;1.00
25556;DHT22;13447;57.174;-2.112;2023-06-19T04:05:08;14.30;1.00
25556;DHT22;13447;57.174;-2.112;2023-06-19T04:07:35;14.30;1.00
25556;DHT22;13447;57.174;-2.112;2023-06-19T04:10:03;14.30;1.00
25556;DHT22;13447;57.174;-2.112;2023-06-19T04:12:30;14.20;1.00
25556;DHT22;13447;57.174;-2.112;2023-06-19T04:14:57;14.30;1.00
25556;DHT22;13447;57.174;-2.112;2023-06-19T04:17:23;14.30;1.00
25556;DHT22;13447;57.174;-2.112;2023-06-19T04:19:50;14.30;1.00
25556;DHT22;13447;57.174;-2.112;2023-06-19T04:22:17;14.30;1.00
25556;DHT22;13447;57.174;-2.112;2023-06-19T04:24:44;14.40;1.00
25556;DHT22;13447;57.174;-2.112;2023-06-19T04:27:10;14.30;1.00
25556;DHT22;13447;57.174;-2.112;2023-06-19T04:29:37;14.30;1.00
25556;DHT22;13447;57.174;-2.112;2023-06-19T04:32:04;14.30;1.00
25556;DHT22;13447;57.174;-2.112;2023-06-19T04:34:38;14.30;1.00
25556;DHT22;13447;57.174;-2.112;2023-06-19T04:37:05;14.40;1.00
25556;DHT22;13447;57.174;-2.112;2023-06-19T04:39:32;14.30;1.00
25556;DHT22;13447;57.174;-2.112;2023-06-19T04:41:58;14.30;1.00
25556;DHT22;13447;57.174;-2.112;2023-06-19T04:44:26;14.40;1.00
25556;DHT22;13447;57.174;-2.112;2023-06-19T04:46:52;14.30;1.00
25556;DHT22;13447;57.174;-2.112;2023-06-19T04:49:28;14.30;1.00
25556;DHT22;13447;57.174;-2.112;2023-06-19T04:51:56;14.30;1.00
25556;DHT22;13447;57.174;-2.112;2023-06-19T04:54:24;14.30;1.00
25556;DHT22;13447;57.174;-2.112;2023-06-19T04:56:51;14.20;1.00
25556;DHT22;13447;57.174;-2.112;2023-06-19T04:59:19;14.10;1.00
25556;DHT22;13447;57.174;-2.112;2023-06-19T05:01:46;14.10;1.00
25556;DHT22;13447;57.174;-2.112;2023-06-19T05:04:13;14.10;1.00
25556;DHT22;13447;57.174;-2.112;2023-06-19T05:06:40;14.10;1.00
25556;DHT22;13447;57.174;-2.112;2023-06-19T05:09:09;14.10;1.00
25556;DHT22;13447;57.174;-2.112;2023-06-19T05:11:36;14.10;1.00
25556;DHT22;13447;57.174;-2.112;2023-06-19T05:14:03;14.10;1.00
25556;DHT22;13447;57.174;-2.112;2023-06-19T05:16:30;14.10;1.00
25556;DHT22;13447;57.174;-2.112;2023-06-19T05:18:59;14.20;1.00
25556;DHT22;13447;57.174;-2.112;2023-06-19T05:21:26;14.20;1.00
25556;DHT22;13447;57.174;-2.112;2023-06-19T05:23:53;14.20;1.00
25556;DHT22;13447;57.174;-2.112;2023-06-19T05:26:20;14.30;1.00
25556;DHT22;13447;57.174;-2.112;2023-06-19T05:28:47;14.30;1.00
25556;DHT22;13447;57.174;-2.112;2023-06-19T05:31:16;14.40;1.00
25556;DHT22;13447;57.174;-2.112;2023-06-19T05:33:44;14.50;1.00
25556;DHT22;13447;57.174;-2.112;2023-06-19T05:36:12;14.50;1.00
25556;DHT22;13447;57.174;-2.112;2023-06-19T05:38:38;14.50;1.00
25556;DHT22;13447;57.174;-2.112;2023-06-19T05:41:05;14.40;1.00
25556;DHT22;13447;57.174;-2.112;2023-06-19T05:43:33;14.50;1.00
25556;DHT22;13447;57.174;-2.112;2023-06-19T05:46:00;14.50;1.00
25556;DHT22;13447;57.174;-2.112;2023-06-19T05:48:29;14.50;1.00
25556;DHT22;13447;57.174;-2.112;2023-06-19T05:50:55;14.50;1.00
25556;DHT22;13447;57.174;-2.112;2023-06-19T05:53:22;14.50;1.00
25556;DHT22;13447;57.174;-2.112;2023-06-19T05:55:49;14.50;1.00
25556;DHT22;13447;57.174;-2.112;2023-06-19T05:58:16;14.50;1.00
25556;DHT22;13447;57.174;-2.112;2023-06-19T06:00:46;14.50;1.00
25556;DHT22;13447;57.174;-2.112;2023-06-19T06:03:13;14.50;1.00
25556;DHT22;13447;57.174;-2.112;2023-06-19T06:05:41;14.50;1.00
25556;DHT22;13447;57.174;-2.112;2023-06-19T06:08:08;14.50;1.00
25556;DHT22;13447;57.174;-2.112;2023-06-19T06:10:35;14.60;1.00
25556;DHT22;13447;57.174;-2.112;2023-06-19T06:13:02;14.50;1.00
25556;DHT22;13447;57.174;-2.112;2023-06-19T06:15:29;14.60;1.00
25556;DHT22;13447;57.174;-2.112;2023-06-19T06:17:55;14.60;1.00
25556;DHT22;13447;57.174;-2.112;2023-06-19T06:20:22;14.50;1.00
25556;DHT22;13447;57.174;-2.112;2023-06-19T06:22:49;14.50;1.00
25556;DHT22;13447;57.174;-2.112;2023-06-19T06:25:16;14.50;1.00
25556;DHT22;13447;57.174;-2.112;2023-06-19T06:27:43;14.50;1.00
25556;DHT22;13447;57.174;-2.112;2023-06-19T06:30:11;14.50;1.00
25556;DHT22;13447;57.174;-2.112;2023-06-19T06:32:38;14.60;1.00
25556;DHT22;13447;57.174;-2.112;2023-06-19T06:35:05;14.60;1.00
25556;DHT22;13447;57.174;-2.112;2023-06-19T06:37:32;14.60;1.00
25556;DHT22;13447;57.174;-2.112;2023-06-19T06:39:59;14.60;1.00
25556;DHT22;13447;57.174;-2.112;2023-06-19T06:42:25;14.60;1.00
25556;DHT22;13447;57.174;-2.112;2023-06-19T06:44:52;14.70;1.00
25556;DHT22;13447;57.174;-2.112;2023-06-19T06:47:19;14.70;1.00
25556;DHT22;13447;57.174;-2.112;2023-06-19T06:49:46;14.70;1.00
25556;DHT22;13447;57.174;-2.112;2023-06-19T06:52:12;14.60;1.00
25556;DHT22;13447;57.174;-2.112;2023-06-19T06:54:39;14.60;1.00
25556;DHT22;13447;57.174;-2.112;2023-06-19T06:57:06;14.50;1.00
25556;DHT22;13447;57.174;-2.112;2023-06-19T06:59:33;14.50;1.00
25556;DHT22;13447;57.174;-2.112;2023-06-19T07:02:00;14.50;1.00
25556;DHT22;13447;57.174;-2.112;2023-06-19T07:04:27;14.50;1.00
25556;DHT22;13447;57.174;-2.112;2023-06-19T07:06:53;14.50;1.00
25556;DHT22;13447;57.174;-2.112;2023-06-19T07:09:20;14.50;1.00
25556;DHT22;13447;57.174;-2.112;2023-06-19T07:11:50;14.60;1.00
25556;DHT22;13447;57.174;-2.112;2023-06-19T07:14:19;14.60;1.00
25556;DHT22;13447;57.174;-2.112;2023-06-19T07:16:46;14.60;1.00
25556;DHT22;13447;57.174;-2.112;2023-06-19T07:19:13;14.60;1.00
25556;DHT22;13447;57.174;-2.112;2023-06-19T07:21:40;14.60;1.00
25556;DHT22;13447;57.174;-2.112;2023-06-19T07:24:07;14.70;1.00
25556;DHT22;13447;57.174;-2.112;2023-06-19T07:26:34;14.70;1.00
25556;DHT22;13447;57.174;-2.112;2023-06-19T07:29:01;14.70;1.00
25556;DHT22;13447;57.174;-2.112;2023-06-19T07:31:27;14.70;1.00
25556;DHT22;13447;57.174;-2.112;2023-06-19T07:33:54;14.70;1.00
25556;DHT22;13447;57.174;-2.112;2023-06-19T07:36:21;14.70;1.00
25556;DHT22;13447;57.174;-2.112;2023-06-19T07:38:48;14.70;1.00
25556;DHT22;13447;57.174;-2.112;2023-06-19T07:41:15;14.80;1.00
25556;DHT22;13447;57.174;-2.112;2023-06-19T07:43:41;14.90;1.00
25556;DHT22;13447;57.174;-2.112;2023-06-19T07:46:09;14.90;1.00
25556;DHT22;13447;57.174;-2.112;2023-06-19T07:48:36;14.90;1.00
25556;DHT22;13447;57.174;-2.112;2023-06-19T07:51:02;15.00;1.00
25556;DHT22;13447;57.174;-2.112;2023-06-19T07:53:29;15.00;1.00
25556;DHT22;13447;57.174;-2.112;2023-06-19T07:55:56;15.00;1.00
25556;DHT22;13447;57.174;-2.112;2023-06-19T07:58:23;15.00;1.00
25556;DHT22;13447;57.174;-2.112;2023-06-19T08:00:49;15.00;1.00
25556;DHT22;13447;57.174;-2.112;2023-06-19T08:03:16;15.00;1.00
25556;DHT22;13447;57.174;-2.112;2023-06-19T08:05:43;15.10;1.00
25556;DHT22;13447;57.174;-2.112;2023-06-19T08:08:11;15.10;1.00
25556;DHT22;13447;57.174;-2.112;2023-06-19T08:10:38;15.10;1.00
25556;DHT22;13447;57.174;-2.112;2023-06-19T08:13:05;15.20;1.00
25556;DHT22;13447;57.174;-2.112;2023-06-19T08:15:32;15.30;1.00
25556;DHT22;13447;57.174;-2.112;2023-06-19T08:17:59;15.30;1.00
25556;DHT22;13447;57.174;-2.112;2023-06-19T08:20:25;15.40;1.00
25556;DHT22;13447;57.174;-2.112;2023-06-19T08:22:53;15.50;1.00
25556;DHT22;13447;57.174;-2.112;2023-06-19T08:25:20;15.50;1.00
25556;DHT22;13447;57.174;-2.112;2023-06-19T08:27:47;15.50;1.00
25556;DHT22;13447;57.174;-2.112;2023-06-19T08:30:13;15.60;1.00
25556;DHT22;13447;57.174;-2.112;2023-06-19T08:32:40;15.60;1.00
25556;DHT22;13447;57.174;-2.112;2023-06-19T08:35:07;15.60;1.00
25556;DHT22;13447;57.174;-2.112;2023-06-19T08:37:34;15.60;1.00
25556;DHT22;13447;57.174;-2.112;2023-06-19T08:40:01;15.60;1.00
25556;DHT22;13447;57.174;-2.112;2023-06-19T08:42:29;15.60;1.00
25556;DHT22;13447;57.174;-2.112;2023-06-19T08:44:56;15.70;1.00
25556;DHT22;13447;57.174;-2.112;2023-06-19T08:47:28;15.80;1.00
25556;DHT22;13447;57.174;-2.112;2023-06-19T08:49:55;15.80;1.00
25556;DHT22;13447;57.174;-2.112;2023-06-19T08:52:22;15.70;1.00
25556;DHT22;13447;57.174;-2.112;2023-06-19T08:54:49;15.80;1.00
25556;DHT22;13447;57.174;-2.112;2023-06-19T08:57:15;15.80;1.00
25556;DHT22;13447;57.174;-2.112;2023-06-19T08:59:49;15.90;1.00
25556;DHT22;13447;57.174;-2.112;2023-06-19T09:02:17;16.10;1.00
25556;DHT22;13447;57.174;-2.112;2023-06-19T09:04:44;16.10;1.00
25556;DHT22;13447;57.174;-2.112;2023-06-19T09:07:11;16.30;1.00
25556;DHT22;13447;57.174;-2.112;2023-06-19T09:09:43;16.50;1.00
25556;DHT22;13447;57.174;-2.112;2023-06-19T09:12:12;16.50;1.00
25556;DHT22;13447;57.174;-2.112;2023-06-19T09:14:39;16.70;1.00
25556;DHT22;13447;57.174;-2.112;2023-06-19T09:17:07;16.90;1.00
25556;DHT22;13447;57.174;-2.112;2023-06-19T09:19:37;17.20;1.00
25556;DHT22;13447;57.174;-2.112;2023-06-19T09:22:07;17.10;1.00
25556;DHT22;13447;57.174;-2.112;2023-06-19T09:24:35;17.30;1.00
25556;DHT22;13447;57.174;-2.112;2023-06-19T09:29:35;17.90;1.00
25556;DHT22;13447;57.174;-2.112;2023-06-19T09:32:13;17.70;1.00
25556;DHT22;13447;57.174;-2.112;2023-06-19T09:34:39;17.80;1.00
25556;DHT22;13447;57.174;-2.112;2023-06-19T09:37:06;18.10;1.00
25556;DHT22;13447;57.174;-2.112;2023-06-19T09:39:34;18.40;1.00
25556;DHT22;13447;57.174;-2.112;2023-06-19T09:42:01;18.50;1.00
25556;DHT22;13447;57.174;-2.112;2023-06-19T09:44:31;18.80;1.00
25556;DHT22;13447;57.174;-2.112;2023-06-19T09:47:21;18.80;1.00
25556;DHT22;13447;57.174;-2.112;2023-06-19T09:49:52;18.80;1.00
25556;DHT22;13447;57.174;-2.112;2023-06-19T09:54:52;19.70;1.00
25556;DHT22;13447;57.174;-2.112;2023-06-19T09:57:20;19.60;99.90
25556;DHT22;13447;57.174;-2.112;2023-06-19T09:59:47;19.80;99.90
25556;DHT22;13447;57.174;-2.112;2023-06-19T10:02:16;20.10;99.90
25556;DHT22;13447;57.174;-2.112;2023-06-19T10:04:44;20.10;99.90
25556;DHT22;13447;57.174;-2.112;2023-06-19T10:07:18;19.70;99.90
25556;DHT22;13447;57.174;-2.112;2023-06-19T10:09:56;19.70;99.90
25556;DHT22;13447;57.174;-2.112;2023-06-19T10:12:33;19.60;99.90
25556;DHT22;13447;57.174;-2.112;2023-06-19T10:15:07;20.00;99.90
25556;DHT22;13447;57.174;-2.112;2023-06-19T10:17:34;20.10;99.90
25556;DHT22;13447;57.174;-2.112;2023-06-19T10:20:01;20.10;99.90
25556;DHT22;13447;57.174;-2.112;2023-06-19T10:22:31;20.10;99.90
25556;DHT22;13447;57.174;-2.112;2023-06-19T10:24:58;20.50;99.90
25556;DHT22;13447;57.174;-2.112;2023-06-19T10:27:25;20.70;99.90
25556;DHT22;13447;57.174;-2.112;2023-06-19T10:29:53;20.80;99.90
25556;DHT22;13447;57.174;-2.112;2023-06-19T10:32:40;21.00;99.90
25556;DHT22;13447;57.174;-2.112;2023-06-19T10:35:16;21.20;99.90
25556;DHT22;13447;57.174;-2.112;2023-06-19T10:37:44;21.20;99.90
25556;DHT22;13447;57.174;-2.112;2023-06-19T10:40:11;21.20;99.90
25556;DHT22;13447;57.174;-2.112;2023-06-19T10:42:39;21.10;96.20
25556;DHT22;13447;57.174;-2.112;2023-06-19T10:45:07;21.00;99.90
25556;DHT22;13447;57.174;-2.112;2023-06-19T10:47:39;20.80;99.90
25556;DHT22;13447;57.174;-2.112;2023-06-19T10:50:13;20.70;99.90
25556;DHT22;13447;57.174;-2.112;2023-06-19T10:52:40;20.70;99.90
25556;DHT22;13447;57.174;-2.112;2023-06-19T10:55:08;21.30;99.90
25556;DHT22;13447;57.174;-2.112;2023-06-19T10:57:36;21.50;41.50
25556;DHT22;13447;57.174;-2.112;2023-06-19T11:00:03;21.30;48.30
25556;DHT22;13447;57.174;-2.112;2023-06-19T11:02:41;21.20;61.20
25556;DHT22;13447;57.174;-2.112;2023-06-19T11:05:19;21.00;95.20
25556;DHT22;13447;57.174;-2.112;2023-06-19T11:07:53;21.10;99.90
25556;DHT22;13447;57.174;-2.112;2023-06-19T11:10:21;21.30;99.90
25556;DHT22;13447;57.174;-2.112;2023-06-19T11:12:56;21.40;9.10
25556;DHT22;13447;57.174;-2.112;2023-06-19T11:15:33;21.60;43.00
25556;DHT22;13447;57.174;-2.112;2023-06-19T11:18:00;21.80;1.40
25556;DHT22;13447;57.174;-2.112;2023-06-19T11:20:28;21.90;7.60
25556;DHT22;13447;57.174;-2.112;2023-06-19T11:22:58;22.30;1.00
25556;DHT22;13447;57.174;-2.112;2023-06-19T11:25:37;22.40;1.00
25556;DHT22;13447;57.174;-2.112;2023-06-19T11:28:05;22.30;1.00
25556;DHT22;13447;57.174;-2.112;2023-06-19T11:30:32;21.90;1.00
25556;DHT22;13447;57.174;-2.112;2023-06-19T11:32:59;21.50;1.00
25556;DHT22;13447;57.174;-2.112;2023-06-19T11:35:32;21.40;1.00
25556;DHT22;13447;57.174;-2.112;2023-06-19T11:38:00;21.30;1.00
25556;DHT22;13447;57.174;-2.112;2023-06-19T11:40:27;21.50;1.00
25556;DHT22;13447;57.174;-2.112;2023-06-19T11:42:55;21.70;1.00
25556;DHT22;13447;57.174;-2.112;2023-06-19T11:45:22;21.70;1.00
25556;DHT22;13447;57.174;-2.112;2023-06-19T11:47:49;21.50;1.00
25556;DHT22;13447;57.174;-2.112;2023-06-19T11:50:16;21.70;1.00
25556;DHT22;13447;57.174;-2.112;2023-06-19T11:52:43;21.70;1.00
25556;DHT22;13447;57.174;-2.112;2023-06-19T11:55:13;21.70;1.00
25556;DHT22;13447;57.174;-2.112;2023-06-19T11:57:40;22.00;1.00
25556;DHT22;13447;57.174;-2.112;2023-06-19T12:00:14;22.30;1.00
25556;DHT22;13447;57.174;-2.112;2023-06-19T12:02:41;22.10;1.00
25556;DHT22;13447;57.174;-2.112;2023-06-19T12:05:08;21.40;1.00
25556;DHT22;13447;57.174;-2.112;2023-06-19T12:07:37;21.60;1.00
25556;DHT22;13447;57.174;-2.112;2023-06-19T12:10:04;21.90;1.00
25556;DHT22;13447;57.174;-2.112;2023-06-19T12:12:36;22.40;1.00
25556;DHT22;13447;57.174;-2.112;2023-06-19T12:15:04;22.80;1.00
25556;DHT22;13447;57.174;-2.112;2023-06-19T12:17:32;22.30;1.00
25556;DHT22;13447;57.174;-2.112;2023-06-19T12:20:00;22.70;1.00
25556;DHT22;13447;57.174;-2.112;2023-06-19T12:22:26;22.00;1.00
25556;DHT22;13447;57.174;-2.112;2023-06-19T12:24:54;22.30;1.00
25556;DHT22;13447;57.174;-2.112;2023-06-19T12:27:21;22.70;1.00
25556;DHT22;13447;57.174;-2.112;2023-06-19T12:29:47;22.50;1.00
25556;DHT22;13447;57.174;-2.112;2023-06-19T12:32:14;22.30;1.00
25556;DHT22;13447;57.174;-2.112;2023-06-19T12:34:41;22.20;1.00
25556;DHT22;13447;57.174;-2.112;2023-06-19T12:37:16;22.70;1.00
25556;DHT22;13447;57.174;-2.112;2023-06-19T12:39:45;22.20;1.00
25556;DHT22;13447;57.174;-2.112;2023-06-19T12:42:12;22.60;1.00
25556;DHT22;13447;57.174;-2.112;2023-06-19T12:44:40;23.20;1.00
25556;DHT22;13447;57.174;-2.112;2023-06-19T12:52:01;21.60;1.00
25556;DHT22;13447;57.174;-2.112;2023-06-19T12:54:28;21.20;1.00
25556;DHT22;13447;57.174;-2.112;2023-06-19T12:56:55;20.80;1.00
25556;DHT22;13447;57.174;-2.112;2023-06-19T12:59:22;20.20;1.00
25556;DHT22;13447;57.174;-2.112;2023-06-19T13:01:49;20.30;48.20
25556;DHT22;13447;57.174;-2.112;2023-06-19T13:04:16;20.10;4.40
25556;DHT22;13447;57.174;-2.112;2023-06-19T13:06:43;20.10;21.80
25556;DHT22;13447;57.174;-2.112;2023-06-19T13:09:09;20.90;1.00
25556;DHT22;13447;57.174;-2.112;2023-06-19T13:11:36;21.30;1.00
25556;DHT22;13447;57.174;-2.112;2023-06-19T13:14:04;21.70;1.00
25556;DHT22;13447;57.174;-2.112;2023-06-19T13:16:31;21.80;1.00
25556;DHT22;13447;57.174;-2.112;2023-06-19T13:19:12;21.30;1.00
25556;DHT22;13447;57.174;-2.112;2023-06-19T13:21:38;21.10;1.00
25556;DHT22;13447;57.174;-2.112;2023-06-19T13:24:05;20.60;1.00
25556;DHT22;13447;57.174;-2.112;2023-06-19T13:26:32;20.70;1.00
25556;DHT22;13447;57.174;-2.112;2023-06-19T13:28:59;20.80;1.00
25556;DHT22;13447;57.174;-2.112;2023-06-19T13:31:27;20.70;1.00
25556;DHT22;13447;57.174;-2.112;2023-06-19T13:33:54;20.90;1.00
25556;DHT22;13447;57.174;-2.112;2023-06-19T13:36:21;20.90;1.00
25556;DHT22;13447;57.174;-2.112;2023-06-19T13:38:50;20.80;1.00
25556;DHT22;13447;57.174;-2.112;2023-06-19T13:41:16;21.00;1.00
25556;DHT22;13447;57.174;-2.112;2023-06-19T13:43:43;21.10;1.00
25556;DHT22;13447;57.174;-2.112;2023-06-19T13:46:12;21.10;1.00
25556;DHT22;13447;57.174;-2.112;2023-06-19T13:48:39;21.10;1.00
25556;DHT22;13447;57.174;-2.112;2023-06-19T13:51:06;21.30;1.00
25556;DHT22;13447;57.174;-2.112;2023-06-19T13:53:33;21.30;1.00
25556;DHT22;13447;57.174;-2.112;2023-06-19T13:55:59;21.70;1.00
25556;DHT22;13447;57.174;-2.112;2023-06-19T13:58:26;22.00;1.00
25556;DHT22;13447;57.174;-2.112;2023-06-19T14:00:53;22.10;1.00
25556;DHT22;13447;57.174;-2.112;2023-06-19T14:03:20;21.90;1.00
25556;DHT22;13447;57.174;-2.112;2023-06-19T14:05:47;22.00;1.00
25556;DHT22;13447;57.174;-2.112;2023-06-19T14:08:14;21.60;1.00
25556;DHT22;13447;57.174;-2.112;2023-06-19T14:10:40;20.90;1.00
25556;DHT22;13447;57.174;-2.112;2023-06-19T14:13:08;21.00;1.00
25556;DHT22;13447;57.174;-2.112;2023-06-19T14:15:38;21.10;1.00
25556;DHT22;13447;57.174;-2.112;2023-06-19T14:18:05;21.00;1.00
25556;DHT22;13447;57.174;-2.112;2023-06-19T14:20:32;20.80;1.00
25556;DHT22;13447;57.174;-2.112;2023-06-19T14:22:58;20.70;1.00
25556;DHT22;13447;57.174;-2.112;2023-06-19T14:25:25;20.80;1.00
25556;DHT22;13447;57.174;-2.112;2023-06-19T14:27:52;21.00;1.00
25556;DHT22;13447;57.174;-2.112;2023-06-19T14:30:19;21.00;1.00
25556;DHT22;13447;57.174;-2.112;2023-06-19T14:32:47;21.00;1.00
25556;DHT22;13447;57.174;-2.112;2023-06-19T14:35:16;21.10;1.00
25556;DHT22;13447;57.174;-2.112;2023-06-19T14:37:44;21.00;1.00
25556;DHT22;13447;57.174;-2.112;2023-06-19T14:40:11;21.00;1.00
25556;DHT22;13447;57.174;-2.112;2023-06-19T14:42:38;21.20;1.00
25556;DHT22;13447;57.174;-2.112;2023-06-19T14:45:05;21.50;1.00
25556;DHT22;13447;57.174;-2.112;2023-06-19T14:47:31;21.80;1.00
25556;DHT22;13447;57.174;-2.112;2023-06-19T14:49:59;22.00;1.00
25556;DHT22;13447;57.174;-2.112;2023-06-19T14:52:26;21.60;1.00
25556;DHT22;13447;57.174;-2.112;2023-06-19T14:54:54;21.60;1.00
25556;DHT22;13447;57.174;-2.112;2023-06-19T14:57:24;21.10;1.00
25556;DHT22;13447;57.174;-2.112;2023-06-19T14:59:52;20.70;1.00
25556;DHT22;13447;57.174;-2.112;2023-06-19T15:02:19;20.50;1.00
25556;DHT22;13447;57.174;-2.112;2023-06-19T15:04:45;20.40;1.00
25556;DHT22;13447;57.174;-2.112;2023-06-19T15:07:26;20.10;1.00
25556;DHT22;13447;57.174;-2.112;2023-06-19T15:09:53;20.00;1.00
25556;DHT22;13447;57.174;-2.112;2023-06-19T15:12:20;19.80;1.00
25556;DHT22;13447;57.174;-2.112;2023-06-19T15:14:47;19.80;1.00
25556;DHT22;13447;57.174;-2.112;2023-06-19T15:17:13;19.70;1.00
25556;DHT22;13447;57.174;-2.112;2023-06-19T15:19:41;19.70;1.00
25556;DHT22;13447;57.174;-2.112;2023-06-19T15:22:08;19.90;1.00
25556;DHT22;13447;57.174;-2.112;2023-06-19T15:24:35;20.00;1.00
25556;DHT22;13447;57.174;-2.112;2023-06-19T15:27:02;20.00;1.00
25556;DHT22;13447;57.174;-2.112;2023-06-19T15:29:29;19.90;1.00
25556;DHT22;13447;57.174;-2.112;2023-06-19T15:31:57;20.10;1.00
25556;DHT22;13447;57.174;-2.112;2023-06-19T15:34:24;20.10;1.00
25556;DHT22;13447;57.174;-2.112;2023-06-19T15:36:51;20.00;1.00
25556;DHT22;13447;57.174;-2.112;2023-06-19T15:39:17;20.10;1.00
25556;DHT22;13447;57.174;-2.112;2023-06-19T15:41:44;20.30;1.00
25556;DHT22;13447;57.174;-2.112;2023-06-19T15:44:14;20.40;1.00
25556;DHT22;13447;57.174;-2.112;2023-06-19T15:46:41;20.50;1.00
25556;DHT22;13447;57.174;-2.112;2023-06-19T15:49:10;20.50;1.00
25556;DHT22;13447;57.174;-2.112;2023-06-19T15:51:37;20.40;1.00
25556;DHT22;13447;57.174;-2.112;2023-06-19T15:54:04;20.30;1.00